Time;durP1;ratioP1;P1;durP2;ratioP2;P2;SDS_P1;SDS_P2;PMS_P1;PMS_P2;Temp;Humidity;BMP_temperature;BMP_pressure;BME280_temperature;BME280_humidity;BME280_pressure;Samples;Min_cycle;Max_cycle;Signal;HPM_P1;HPM_P2
2021/05/20 00:01:06;;;;;;;1.08;1.00;;;14.70;91.10;;;;;;4974999;28;20027;-73
2021/05/20 00:03:32;;;;;;;3.15;0.90;;;14.80;91.10;;;;;;4974996;28;20030;-73
2021/05/20 00:05:58;;;;;;;1.15;0.88;;;14.80;91.10;;;;;;4975008;28;20512;-74
2021/05/20 00:08:23;;;;;;;2.05;1.08;;;14.70;91.00;;;;;;4974932;28;20046;-73
2021/05/20 00:10:49;;;;;;;2.65;1.08;;;14.80;91.00;;;;;;4974970;28;20797;-72
2021/05/20 00:13:15;;;;;;;0.98;0.98;;;14.80;91.00;;;;;;4974825;28;20023;-73
2021/05/20 00:15:40;;;;;;;1.08;1.08;;;14.80;90.90;;;;;;4974822;28;20081;-73
2021/05/20 00:18:06;;;;;;;1.60;1.20;;;14.80;90.90;;;;;;4974848;28;20031;-73
2021/05/20 00:20:32;;;;;;;1.40;1.30;;;14.80;90.80;;;;;;4974762;28;20027;-73
2021/05/20 00:22:58;;;;;;;1.35;1.25;;;14.80;90.80;;;;;;4974606;28;20043;-73
2021/05/20 00:25:24;;;;;;;1.50;1.40;;;14.80;90.70;;;;;;4974486;28;20082;-72
2021/05/20 00:27:50;;;;;;;1.63;1.35;;;14.80;90.70;;;;;;4974459;28;20066;-73
2021/05/20 00:30:16;;;;;;;2.72;1.63;;;14.80;90.70;;;;;;4974533;28;20027;-72
2021/05/20 00:32:41;;;;;;;2.58;1.48;;;14.80;90.70;;;;;;4974506;28;20042;-72
2021/05/20 00:35:08;;;;;;;3.90;1.50;;;14.80;90.60;;;;;;4974352;28;20235;-72
2021/05/20 00:37:34;;;;;;;3.50;2.00;;;14.80;90.50;;;;;;4974161;28;20077;-73
2021/05/20 00:40:00;;;;;;;1.80;1.45;;;14.80;90.50;;;;;;5005442;28;20474;-73
2021/05/20 00:42:26;;;;;;;1.73;1.60;;;14.80;90.50;;;;;;4974301;28;20034;-73
2021/05/20 00:45:03;;;;;;;1.63;1.52;;;14.70;90.50;;;;;;4972823;28;20045;-73
2021/05/20 00:47:32;;;;;;;1.55;1.40;;;14.80;90.50;;;;;;4973607;28;20019;-73
2021/05/20 00:49:59;;;;;;;5.53;1.90;;;14.80;90.50;;;;;;4974139;28;20031;-74
2021/05/20 00:52:25;;;;;;;1.60;1.50;;;14.80;90.40;;;;;;4974115;28;20015;-73
2021/05/20 00:54:55;;;;;;;1.65;1.48;;;14.80;90.40;;;;;;4974043;28;20105;-73
2021/05/20 00:57:22;;;;;;;2.00;1.85;;;14.80;90.40;;;;;;4974145;28;20023;-73
2021/05/20 00:59:48;;;;;;;1.85;1.75;;;14.80;90.40;;;;;;4974111;28;20458;-73
2021/05/20 01:02:15;;;;;;;2.72;1.58;;;14.80;90.40;;;;;;5005082;28;20053;-73
2021/05/20 01:04:41;;;;;;;1.52;1.42;;;14.80;90.30;;;;;;4974339;28;20413;-77
2021/05/20 01:07:07;;;;;;;3.10;1.70;;;14.70;90.30;;;;;;4975396;28;20088;-77
2021/05/20 01:09:35;;;;;;;1.80;1.70;;;14.70;90.30;;;;;;4975147;28;20034;-78
2021/05/20 01:12:08;;;;;;;2.17;1.70;;;14.80;90.30;;;;;;4975300;28;20026;-78
2021/05/20 01:14:44;;;;;;;2.20;2.00;;;14.70;90.30;;;;;;4975203;28;20022;-77
2021/05/20 01:17:11;;;;;;;2.00;1.80;;;14.70;90.40;;;;;;4975100;28;20030;-77
2021/05/20 01:19:42;;;;;;;2.03;1.90;;;14.60;90.40;;;;;;5006359;28;20026;-78
2021/05/20 01:22:08;;;;;;;3.17;1.80;;;14.60;90.40;;;;;;4974804;28;20445;-78
2021/05/20 01:24:34;;;;;;;3.78;2.13;;;14.60;90.40;;;;;;4974516;28;20496;-78
2021/05/20 01:27:04;;;;;;;1.92;1.83;;;14.60;90.50;;;;;;4974711;28;20030;-78
2021/05/20 01:29:30;;;;;;;2.85;2.30;;;14.60;90.60;;;;;;4974981;28;20038;-77
2021/05/20 01:31:57;;;;;;;2.22;1.80;;;14.50;90.60;;;;;;4975137;28;20026;-78
2021/05/20 01:34:23;;;;;;;2.70;1.90;;;14.50;90.70;;;;;;5005989;28;20422;-78
2021/05/20 01:36:49;;;;;;;3.95;1.88;;;14.50;90.70;;;;;;4973258;28;20118;-78
2021/05/20 01:39:15;;;;;;;2.03;1.88;;;14.50;90.80;;;;;;4974331;28;20401;-78
2021/05/20 01:41:41;;;;;;;4.68;1.85;;;14.50;90.70;;;;;;4974269;28;20023;-78
2021/05/20 01:44:06;;;;;;;2.38;1.90;;;14.50;90.60;;;;;;4974181;28;20546;-78
2021/05/20 01:46:32;;;;;;;2.25;1.90;;;14.40;90.60;;;;;;4974296;28;20081;-79
2021/05/20 01:48:58;;;;;;;6.47;2.30;;;14.40;90.60;;;;;;4974082;28;20038;-78
2021/05/20 01:51:23;;;;;;;4.82;2.28;;;14.30;90.70;;;;;;4974193;28;20590;-77
2021/05/20 01:53:56;;;;;;;3.70;1.90;;;14.30;90.80;;;;;;4974326;28;20030;-78
2021/05/20 01:56:22;;;;;;;2.63;2.30;;;14.30;90.90;;;;;;4973601;28;20038;-78
2021/05/20 01:58:48;;;;;;;3.05;2.10;;;14.30;91.00;;;;;;4972884;28;20392;-77
2021/05/20 02:01:14;;;;;;;2.30;2.05;;;14.30;91.00;;;;;;4973989;28;20050;-77
2021/05/20 02:03:40;;;;;;;3.30;2.00;;;14.30;91.00;;;;;;4973880;28;20070;-71
2021/05/20 02:06:07;;;;;;;4.05;1.83;;;14.30;90.90;;;;;;4973031;28;20054;-72
2021/05/20 02:08:37;;;;;;;5.35;2.50;;;14.30;90.90;;;;;;4972936;28;20023;-72
2021/05/20 02:11:04;;;;;;;1.80;1.70;;;14.20;91.00;;;;;;4973047;28;20034;-72
2021/05/20 02:13:30;;;;;;;5.03;2.10;;;14.30;91.00;;;;;;4973980;28;20023;-79
2021/05/20 02:15:56;;;;;;;2.78;2.08;;;14.30;91.00;;;;;;4974159;28;20377;-77
2021/05/20 02:18:22;;;;;;;3.97;2.17;;;14.30;91.10;;;;;;4973991;28;20142;-77
2021/05/20 02:20:48;;;;;;;3.50;2.05;;;14.30;91.10;;;;;;4973921;28;20117;-77
2021/05/20 02:23:15;;;;;;;2.10;2.00;;;14.30;91.10;;;;;;4973988;28;20066;-77
2021/05/20 02:25:41;;;;;;;2.15;1.80;;;14.30;91.20;;;;;;4973654;28;20161;-77
2021/05/20 02:28:07;;;;;;;3.03;2.15;;;14.30;91.20;;;;;;4973468;28;20126;-77
2021/05/20 02:30:33;;;;;;;2.45;2.25;;;14.30;91.20;;;;;;4973632;28;20019;-77
2021/05/20 02:33:00;;;;;;;2.58;2.28;;;14.30;91.20;;;;;;4973510;28;20023;-77
2021/05/20 02:35:27;;;;;;;3.83;1.77;;;14.30;91.20;;;;;;4973595;28;20034;-77
2021/05/20 02:37:53;;;;;;;5.22;2.05;;;14.30;91.20;;;;;;4973414;28;20533;-77
2021/05/20 02:40:19;;;;;;;4.38;2.53;;;14.30;91.20;;;;;;5005615;28;20031;-77
2021/05/20 02:42:45;;;;;;;3.10;2.15;;;14.40;91.20;;;;;;4974283;28;20030;-77
2021/05/20 02:45:18;;;;;;;2.35;2.00;;;14.30;91.10;;;;;;4973718;28;20410;-77
2021/05/20 02:47:44;;;;;;;3.70;2.17;;;14.40;91.20;;;;;;5004473;28;20359;-77
2021/05/20 02:50:11;;;;;;;6.63;2.42;;;14.30;91.00;;;;;;4973385;28;20078;-77
2021/05/20 02:52:37;;;;;;;2.47;2.28;;;14.30;91.00;;;;;;4973602;28;20099;-78
2021/05/20 02:55:04;;;;;;;2.42;2.22;;;14.30;91.00;;;;;;4974056;28;20106;-78
2021/05/20 02:57:34;;;;;;;9.43;2.00;;;14.40;91.00;;;;;;4972903;28;20111;-78
2021/05/20 02:59:59;;;;;;;3.00;2.05;;;14.30;90.90;;;;;;4972367;28;20105;-72
2021/05/20 03:02:25;;;;;;;5.10;2.40;;;14.30;90.70;;;;;;4972428;28;20107;-77
2021/05/20 03:04:52;;;;;;;4.90;2.58;;;14.30;90.70;;;;;;4972954;28;20035;-78
2021/05/20 03:07:18;;;;;;;4.05;2.47;;;14.30;90.60;;;;;;5004747;28;20027;-77
2021/05/20 03:09:43;;;;;;;4.43;2.60;;;14.40;90.70;;;;;;4974007;28;20029;-77
2021/05/20 03:12:09;;;;;;;6.05;2.45;;;14.40;90.80;;;;;;4976418;28;20101;-77
2021/05/20 03:14:35;;;;;;;3.20;2.38;;;14.40;90.80;;;;;;4976590;28;20019;-77
2021/05/20 03:17:04;;;;;;;3.65;2.60;;;14.40;90.80;;;;;;5007464;28;20844;-78
2021/05/20 03:19:29;;;;;;;3.10;2.90;;;14.30;90.80;;;;;;4976365;28;20023;-78
2021/05/20 03:21:55;;;;;;;7.00;2.88;;;14.40;90.90;;;;;;4976619;28;20803;-77
2021/05/20 03:24:21;;;;;;;3.15;2.60;;;14.30;90.90;;;;;;4976101;28;20034;-76
2021/05/20 03:26:47;;;;;;;5.05;2.63;;;14.40;90.90;;;;;;4975801;28;20027;-77
2021/05/20 03:29:13;;;;;;;2.72;2.53;;;14.40;90.90;;;;;;4975425;28;20065;-77
2021/05/20 03:31:40;;;;;;;2.60;2.40;;;14.40;90.90;;;;;;4975451;28;20045;-78
2021/05/20 03:34:05;;;;;;;3.33;2.78;;;14.40;90.90;;;;;;4975238;28;20466;-76
2021/05/20 03:36:31;;;;;;;6.40;2.83;;;14.50;90.70;;;;;;4975384;28;20031;-77
2021/05/20 03:38:57;;;;;;;5.70;2.80;;;14.50;90.60;;;;;;4975413;28;20101;-76
2021/05/20 03:41:22;;;;;;;5.18;2.67;;;14.50;90.50;;;;;;4974270;28;20059;-77
2021/05/20 03:43:48;;;;;;;3.00;2.55;;;14.50;90.40;;;;;;4975154;28;20035;-78
2021/05/20 03:46:14;;;;;;;3.40;3.10;;;14.60;90.30;;;;;;4975035;28;20359;-78
2021/05/20 03:48:39;;;;;;;4.88;2.63;;;14.60;90.20;;;;;;4975170;28;20099;-78
2021/05/20 03:51:05;;;;;;;3.10;2.63;;;14.60;90.10;;;;;;4975279;28;20109;-78
2021/05/20 03:53:32;;;;;;;4.43;2.45;;;14.70;90.10;;;;;;4975396;28;20429;-77
2021/05/20 03:56:01;;;;;;;3.42;2.65;;;14.70;89.90;;;;;;4975350;28;20031;-77
2021/05/20 03:58:28;;;;;;;4.47;2.42;;;14.70;89.60;;;;;;4975363;28;20481;-78
2021/05/20 04:00:53;;;;;;;3.03;2.72;;;14.80;89.50;;;;;;4975610;28;20031;-79
2021/05/20 04:03:29;;;;;;;3.10;2.50;;;14.80;89.20;;;;;;4975105;28;20031;-78
2021/05/20 04:06:03;;;;;;;3.58;2.30;;;14.80;88.80;;;;;;4975507;28;20038;-79
2021/05/20 04:08:29;;;;;;;8.00;3.00;;;14.80;88.50;;;;;;4976297;28;20098;-78
2021/05/20 04:10:55;;;;;;;6.78;3.00;;;14.80;88.20;;;;;;4976817;28;20030;-79
2021/05/20 04:13:28;;;;;;;8.23;2.97;;;14.90;88.00;;;;;;4974752;28;20029;-73
2021/05/20 04:15:54;;;;;;;3.58;2.38;;;14.90;87.60;;;;;;5005994;28;20033;-73
2021/05/20 04:18:20;;;;;;;3.08;2.40;;;15.00;87.50;;;;;;4974209;28;20097;-73
2021/05/20 04:20:46;;;;;;;4.90;2.67;;;15.00;87.00;;;;;;4974329;28;20110;-73
2021/05/20 04:23:11;;;;;;;8.95;2.58;;;15.10;86.60;;;;;;4973798;28;20027;-78
2021/05/20 04:25:37;;;;;;;8.35;2.70;;;15.10;86.30;;;;;;4974977;28;20452;-78
2021/05/20 04:28:03;;;;;;;3.47;2.47;;;15.10;86.10;;;;;;4974558;28;20047;-79
2021/05/20 04:30:29;;;;;;;8.95;2.53;;;15.10;85.70;;;;;;4974675;28;20030;-79
2021/05/20 04:32:55;;;;;;;3.78;2.70;;;15.10;85.90;;;;;;4974481;28;20062;-78
2021/05/20 04:35:21;;;;;;;6.78;3.15;;;15.10;85.20;;;;;;4974477;28;20027;-78
2021/05/20 04:37:47;;;;;;;3.85;2.40;;;15.00;85.20;;;;;;4974169;28;20145;-78
2021/05/20 04:40:13;;;;;;;9.57;3.70;;;15.00;85.20;;;;;;4974972;28;20026;-78
2021/05/20 04:42:39;;;;;;;4.45;2.50;;;15.10;85.30;;;;;;4974033;28;20023;-78
2021/05/20 04:45:05;;;;;;;15.50;2.83;;;15.10;85.40;;;;;;4973770;28;20070;-79
2021/05/20 04:47:31;;;;;;;2.60;2.40;;;15.10;85.20;;;;;;4974028;28;20021;-78
2021/05/20 04:49:57;;;;;;;6.95;2.60;;;15.20;85.10;;;;;;4972552;28;20026;-79
2021/05/20 04:52:22;;;;;;;4.93;2.95;;;15.30;84.80;;;;;;4973552;28;20529;-78
2021/05/20 04:54:48;;;;;;;4.38;2.60;;;15.40;84.40;;;;;;4974153;28;20027;-80
2021/05/20 04:57:14;;;;;;;7.85;2.58;;;15.50;83.70;;;;;;4973916;28;20026;-79
2021/05/20 04:59:39;;;;;;;11.13;2.50;;;15.60;83.20;;;;;;4973823;28;20023;-79
2021/05/20 05:02:06;;;;;;;7.13;2.60;;;15.60;82.50;;;;;;4973793;28;20042;-79
2021/05/20 05:04:32;;;;;;;6.55;2.70;;;15.70;82.10;;;;;;4974734;28;20055;-81
2021/05/20 05:06:57;;;;;;;8.52;2.78;;;15.70;81.90;;;;;;4975107;28;20089;-80
2021/05/20 05:09:23;;;;;;;10.73;3.35;;;15.70;81.70;;;;;;4975709;28;20023;-81
2021/05/20 05:11:49;;;;;;;7.45;3.17;;;15.80;81.50;;;;;;4976208;28;20525;-81
2021/05/20 05:14:15;;;;;;;7.00;2.50;;;15.80;81.20;;;;;;4973963;28;20022;-74
2021/05/20 05:16:41;;;;;;;8.52;2.63;;;15.80;80.90;;;;;;4971342;28;20366;-74
2021/05/20 05:19:07;;;;;;;4.65;2.47;;;15.70;80.60;;;;;;5003922;28;20378;-74
2021/05/20 05:21:32;;;;;;;6.65;2.90;;;15.70;80.50;;;;;;4972248;28;20109;-73
2021/05/20 05:23:58;;;;;;;9.82;3.38;;;15.70;80.30;;;;;;4972117;28;20030;-73
2021/05/20 05:26:24;;;;;;;5.35;2.70;;;15.70;80.10;;;;;;4972385;28;20085;-74
2021/05/20 05:28:50;;;;;;;8.57;2.50;;;15.60;80.20;;;;;;4972325;28;20045;-74
2021/05/20 05:31:20;;;;;;;9.68;2.50;;;15.60;80.10;;;;;;4972795;28;20097;-74
2021/05/20 05:33:46;;;;;;;12.63;2.90;;;15.60;80.10;;;;;;4972629;28;20027;-74
2021/05/20 05:36:12;;;;;;;4.28;2.70;;;15.50;80.10;;;;;;4972212;28;20377;-74
2021/05/20 05:38:38;;;;;;;6.88;2.60;;;15.50;80.30;;;;;;4972621;28;20151;-74
2021/05/20 05:41:04;;;;;;;14.50;2.60;;;15.60;80.40;;;;;;4972267;28;20351;-77
2021/05/20 05:43:29;;;;;;;12.35;2.95;;;15.60;80.20;;;;;;4972294;28;20058;-72
2021/05/20 05:45:55;;;;;;;12.52;3.28;;;15.60;80.00;;;;;;4972124;28;20093;-72
2021/05/20 05:48:21;;;;;;;6.43;2.78;;;15.60;80.10;;;;;;4972565;28;20037;-72
2021/05/20 05:50:49;;;;;;;9.50;2.70;;;15.70;79.90;;;;;;5003901;28;20044;-73
2021/05/20 05:53:15;;;;;;;4.60;2.60;;;15.70;79.90;;;;;;4971108;28;20469;-73
2021/05/20 05:55:41;;;;;;;6.63;2.80;;;15.80;79.80;;;;;;4971413;28;20045;-73
2021/05/20 05:58:07;;;;;;;9.40;3.42;;;15.90;79.80;;;;;;4972179;28;20147;-72
2021/05/20 06:00:32;;;;;;;10.93;2.28;;;16.10;79.60;;;;;;4972592;28;20031;-72
2021/05/20 06:02:58;;;;;;;5.93;2.55;;;16.30;79.60;;;;;;4971725;28;20062;-72
2021/05/20 06:05:24;;;;;;;9.30;2.90;;;16.50;79.10;;;;;;4971434;28;20034;-71
2021/05/20 06:07:50;;;;;;;6.40;2.67;;;16.80;78.40;;;;;;4971562;28;20030;-72
2021/05/20 06:10:15;;;;;;;5.93;2.92;;;17.00;77.80;;;;;;4971271;28;20078;-77
2021/05/20 06:12:41;;;;;;;7.07;2.67;;;17.30;77.40;;;;;;4971186;28;20430;-73
2021/05/20 06:15:08;;;;;;;7.88;2.47;;;17.60;76.50;;;;;;4971359;28;20019;-74
2021/05/20 06:17:39;;;;;;;6.30;2.55;;;17.90;75.20;;;;;;4970994;28;20370;-75
2021/05/20 06:20:06;;;;;;;4.28;2.20;;;18.20;74.20;;;;;;4971552;28;20505;-74
2021/05/20 06:22:32;;;;;;;4.15;2.10;;;18.40;73.50;;;;;;4971120;28;20686;-73
2021/05/20 06:24:58;;;;;;;7.25;2.20;;;19.00;73.40;;;;;;4971280;28;20117;-74
2021/05/20 06:27:26;;;;;;;9.95;2.83;;;20.30;73.70;;;;;;4970855;28;20015;-74
2021/05/20 06:29:56;;;;;;;8.55;3.17;;;21.70;70.90;;;;;;4971036;28;20843;-74
2021/05/20 06:32:22;;;;;;;2.72;1.80;;;23.10;67.00;;;;;;4969038;28;20014;-74
2021/05/20 06:34:47;;;;;;;6.20;2.50;;;24.60;64.40;;;;;;4970894;28;20469;-73
2021/05/20 06:37:13;;;;;;;13.75;3.40;;;25.80;59.70;;;;;;4971325;28;20815;-73
2021/05/20 06:39:40;;;;;;;3.40;2.40;;;26.60;57.60;;;;;;4971193;28;20053;-73
2021/05/20 06:42:11;;;;;;;6.82;2.53;;;27.20;54.90;;;;;;4970535;28;20527;-73
2021/05/20 06:44:40;;;;;;;15.23;2.60;;;27.50;53.40;;;;;;4971037;28;20019;-73
2021/05/20 06:47:07;;;;;;;4.50;2.10;;;28.50;52.90;;;;;;4974554;28;20053;-73
2021/05/20 06:49:32;;;;;;;4.47;2.13;;;29.60;51.30;;;;;;4974728;28;20118;-78
2021/05/20 06:51:59;;;;;;;6.63;2.55;;;30.50;49.20;;;;;;4974525;28;20102;-78
2021/05/20 06:54:25;;;;;;;11.05;3.67;;;30.70;47.60;;;;;;4974422;28;20019;-78
2021/05/20 06:56:57;;;;;;;12.20;2.75;;;31.20;46.40;;;;;;4974935;28;20082;-78
2021/05/20 07:02:08;;;;;;;17.55;3.67;;;32.20;44.80;;;;;;4973616;28;20037;-79
2021/05/20 07:04:33;;;;;;;9.07;3.20;;;32.50;44.20;;;;;;4975198;28;20110;-79
2021/05/20 07:07:02;;;;;;;5.05;2.30;;;32.80;43.10;;;;;;4974499;28;20049;-78
2021/05/20 07:09:33;;;;;;;5.13;2.10;;;32.70;42.20;;;;;;4974617;28;20420;-78
2021/05/20 07:11:59;;;;;;;4.10;2.25;;;32.70;41.50;;;;;;4972819;28;20057;-81
2021/05/20 07:14:25;;;;;;;8.52;2.22;;;32.80;41.50;;;;;;4974785;28;20120;-80
2021/05/20 07:16:51;;;;;;;10.75;2.60;;;33.00;41.10;;;;;;4975018;28;20102;-78
2021/05/20 07:19:18;;;;;;;4.43;2.20;;;33.30;40.90;;;;;;4974921;28;20102;-80
2021/05/20 07:21:43;;;;;;;8.48;2.45;;;33.20;40.40;;;;;;4974828;28;20030;-78
2021/05/20 07:24:09;;;;;;;12.93;4.00;;;33.00;40.10;;;;;;4974826;28;20082;-78
2021/05/20 07:26:35;;;;;;;6.75;1.95;;;32.80;40.20;;;;;;4975335;28;20031;-79
2021/05/20 07:29:02;;;;;;;3.40;2.35;;;32.80;40.10;;;;;;4975040;28;20138;-79
2021/05/20 07:31:28;;;;;;;5.45;1.88;;;32.60;40.20;;;;;;4973833;28;20031;-79
2021/05/20 07:33:54;;;;;;;6.72;1.83;;;32.30;40.20;;;;;;4975781;28;20026;-78
2021/05/20 07:36:22;;;;;;;6.55;2.13;;;32.20;40.20;;;;;;4975782;28;20107;-80
2021/05/20 07:38:48;;;;;;;6.90;2.10;;;32.20;40.20;;;;;;4975889;28;20089;-79
2021/05/20 07:41:15;;;;;;;2.35;2.13;;;32.40;40.20;;;;;;4975221;28;20026;-78
2021/05/20 07:43:41;;;;;;;9.57;1.88;;;32.50;39.80;;;;;;4975164;28;20042;-81
2021/05/20 07:46:07;;;;;;;3.60;1.75;;;32.50;39.50;;;;;;4975166;28;20382;-80
2021/05/20 07:48:33;;;;;;;5.25;1.67;;;32.50;39.70;;;;;;4975145;28;20046;-80
2021/05/20 07:51:01;;;;;;;4.53;1.70;;;32.30;39.30;;;;;;4975038;28;20023;-80
2021/05/20 07:53:27;;;;;;;15.63;2.33;;;32.00;39.20;;;;;;4974954;28;20077;-81
2021/05/20 07:55:53;;;;;;;7.85;1.70;;;31.80;39.20;;;;;;4972922;28;20110;-78
2021/05/20 07:58:18;;;;;;;2.55;1.70;;;31.40;39.60;;;;;;4974132;28;20068;-73
2021/05/20 08:00:44;;;;;;;3.63;2.33;;;31.00;40.00;;;;;;4974681;28;20023;-72
2021/05/20 08:03:24;;;;;;;4.85;1.92;;;30.60;40.50;;;;;;4974572;28;20074;-80
2021/05/20 08:11:13;;;;;;;3.80;1.90;;;29.90;41.50;;;;;;4974694;28;20015;-73
2021/05/20 08:13:39;;;;;;;2.67;1.88;;;30.00;41.90;;;;;;4974203;28;20027;-74
2021/05/20 08:16:05;;;;;;;2.85;1.83;;;30.00;41.20;;;;;;4974436;28;20102;-73
2021/05/20 08:18:31;;;;;;;4.35;1.70;;;29.80;41.40;;;;;;4974497;28;20045;-73
2021/05/20 08:20:58;;;;;;;5.53;1.90;;;29.80;41.20;;;;;;4974363;28;20030;-73
2021/05/20 08:23:25;;;;;;;3.95;1.60;;;29.80;41.20;;;;;;4976485;28;20092;-75
2021/05/20 08:25:50;;;;;;;1.75;1.65;;;29.80;41.10;;;;;;4973943;28;20088;-73
2021/05/20 08:28:17;;;;;;;2.35;1.83;;;29.50;40.80;;;;;;4973520;28;20050;-73
2021/05/20 08:30:43;;;;;;;8.50;2.50;;;29.20;41.00;;;;;;4974296;28;20015;-74
2021/05/20 08:33:09;;;;;;;5.15;2.45;;;28.90;41.50;;;;;;4974151;28;20070;-73
2021/05/20 08:35:35;;;;;;;2.58;2.38;;;28.80;42.20;;;;;;4973854;28;20544;-73
2021/05/20 08:38:02;;;;;;;7.72;2.20;;;28.60;42.00;;;;;;4974194;28;20031;-75
2021/05/20 08:40:29;;;;;;;8.88;2.78;;;28.40;41.90;;;;;;4973975;28;20027;-74
2021/05/20 08:42:55;;;;;;;9.68;2.30;;;28.30;42.60;;;;;;4974011;28;20114;-74
2021/05/20 08:45:23;;;;;;;7.30;2.15;;;28.40;42.40;;;;;;4973514;28;20075;-74
2021/05/20 08:47:50;;;;;;;5.20;2.15;;;28.50;41.90;;;;;;4973386;28;20485;-73
2021/05/20 08:50:18;;;;;;;3.90;1.70;;;28.70;42.20;;;;;;4973804;28;20063;-80
2021/05/20 08:52:44;;;;;;;6.85;2.22;;;28.90;41.90;;;;;;4975236;28;20050;-80
2021/05/20 08:55:16;;;;;;;11.57;2.35;;;29.20;41.20;;;;;;4976332;28;20023;-81
2021/05/20 08:57:42;;;;;;;2.80;1.80;;;29.10;40.70;;;;;;4973729;28;20350;-82
2021/05/20 09:00:12;;;;;;;8.20;2.40;;;28.80;40.70;;;;;;4973759;28;20030;-81
2021/05/20 09:02:38;;;;;;;3.22;1.90;;;28.60;41.40;;;;;;4973839;28;20426;-81
2021/05/20 09:05:03;;;;;;;4.00;1.55;;;28.50;41.60;;;;;;4973564;28;20019;-81
2021/05/20 09:07:36;;;;;;;3.83;1.48;;;28.50;41.30;;;;;;4973244;28;20118;-82
2021/05/20 09:10:19;;;;;;;5.15;1.80;;;28.50;40.90;;;;;;4973676;28;20038;-81
2021/05/20 09:12:46;;;;;;;3.55;1.90;;;28.20;40.70;;;;;;4973247;28;20070;-82
2021/05/20 09:15:18;;;;;;;6.63;3.00;;;28.10;41.40;;;;;;4977153;28;20366;-82
2021/05/20 09:17:44;;;;;;;;;;;27.90;42.10;;;;;;4974461;28;20418;-83
2021/05/20 09:20:10;;;;;;;5.78;2.10;;;27.80;42.40;;;;;;4973887;28;19906;-82
2021/05/20 09:22:37;;;;;;;4.10;1.85;;;27.70;42.40;;;;;;4974073;28;20061;-82
2021/05/20 09:25:04;;;;;;;9.25;2.50;;;27.50;42.70;;;;;;4973218;28;20147;-81
2021/05/20 09:27:40;;;;;;;9.55;3.00;;;27.40;43.20;;;;;;4973137;28;20390;-81
2021/05/20 09:30:23;;;;;;;7.40;2.83;;;27.30;43.10;;;;;;4975243;28;20023;-81
2021/05/20 09:32:56;;;;;;;4.70;1.90;;;27.20;42.90;;;;;;4981318;28;20026;-83
2021/05/20 09:35:30;;;;;;;5.00;1.70;;;27.00;42.90;;;;;;4976183;28;20031;-81
2021/05/20 09:37:59;;;;;;;5.93;1.90;;;26.90;43.00;;;;;;4973916;28;20102;-83
2021/05/20 09:40:31;;;;;;;3.15;2.28;;;27.00;43.20;;;;;;4973126;28;20078;-81
2021/05/20 09:42:57;;;;;;;3.38;2.08;;;27.10;43.20;;;;;;4973480;28;20056;-73
2021/05/20 09:45:25;;;;;;;9.23;2.45;;;27.10;42.80;;;;;;4971269;28;20034;-76
2021/05/20 09:47:52;;;;;;;6.63;2.40;;;26.90;43.00;;;;;;4972612;28;20019;-75
2021/05/20 09:50:21;;;;;;;5.35;2.00;;;26.70;43.40;;;;;;4972388;28;20070;-74
2021/05/20 09:52:48;;;;;;;16.23;4.88;;;26.60;44.10;;;;;;4972313;28;20069;-75
2021/05/20 09:55:23;;;;;;;3.20;2.35;;;26.60;44.70;;;;;;4972347;28;20034;-75
2021/05/20 09:57:49;;;;;;;6.47;2.25;;;26.60;43.90;;;;;;4972552;28;20026;-75
2021/05/20 10:00:17;;;;;;;8.10;2.15;;;26.50;44.00;;;;;;4972665;28;20031;-76
2021/05/20 10:02:45;;;;;;;8.88;2.40;;;26.40;44.20;;;;;;4972414;28;20022;-76
2021/05/20 10:05:21;;;;;;;5.30;2.30;;;26.50;44.10;;;;;;4972398;28;20023;-76
2021/05/20 10:07:47;;;;;;;12.23;3.13;;;26.60;44.20;;;;;;4972714;28;20130;-75
2021/05/20 10:10:17;;;;;;;2.35;1.98;;;26.60;44.40;;;;;;4972353;28;20038;-74
2021/05/20 10:12:44;;;;;;;5.03;2.35;;;26.60;43.90;;;;;;4972292;28;20115;-75
2021/05/20 10:15:19;;;;;;;12.48;7.53;;;26.50;43.60;;;;;;4972334;28;20377;-75
2021/05/20 10:17:45;;;;;;;3.53;1.92;;;26.40;44.00;;;;;;4971037;28;20038;-76
2021/05/20 10:20:20;;;;;;;5.78;2.75;;;26.50;43.90;;;;;;4973912;28;20130;-75
2021/05/20 10:22:48;;;;;;;3.13;2.10;;;26.60;44.10;;;;;;4975823;28;20029;-74
2021/05/20 10:25:15;;;;;;;10.02;2.80;;;26.70;43.60;;;;;;4976012;28;20066;-75
2021/05/20 10:27:41;;;;;;;12.13;3.53;;;26.70;43.70;;;;;;4975811;28;20382;-75
2021/05/20 10:30:11;;;;;;;3.13;2.60;;;26.70;43.70;;;;;;4976091;28;20019;-74
2021/05/20 10:32:38;;;;;;;5.75;2.45;;;26.60;43.80;;;;;;4976254;28;20030;-75
2021/05/20 10:35:13;;;;;;;6.22;2.42;;;26.50;43.90;;;;;;4976259;28;20034;-75
2021/05/20 10:37:43;;;;;;;5.28;3.03;;;26.40;43.80;;;;;;4976428;28;20136;-74
2021/05/20 10:40:10;;;;;;;5.00;2.50;;;26.30;43.70;;;;;;4976118;28;20038;-73
2021/05/20 10:42:42;;;;;;;8.18;2.90;;;26.40;43.60;;;;;;4976123;28;20033;-74
2021/05/20 10:45:18;;;;;;;3.42;2.15;;;26.50;43.20;;;;;;4976061;28;20022;-75
2021/05/20 10:48:02;;;;;;;3.97;2.25;;;26.50;43.20;;;;;;4976024;28;20027;-75
2021/05/20 10:50:50;;;;;;;13.15;2.65;;;26.50;43.30;;;;;;4975841;28;20030;-74
2021/05/20 10:53:37;;;;;;;6.22;2.40;;;26.50;43.30;;;;;;4976728;28;20026;-82
2021/05/20 10:56:08;;;;;;;4.97;2.45;;;26.50;43.70;;;;;;4976757;28;20351;-83
2021/05/20 10:58:38;;;;;;;9.07;5.78;;;26.70;44.00;;;;;;4974971;28;20038;-83
2021/05/20 11:01:04;;;;;;;7.47;2.30;;;26.70;43.40;;;;;;4976335;28;20050;-83
2021/05/20 11:03:48;;;;;;;5.20;2.10;;;26.60;43.20;;;;;;4976317;28;20030;-82
2021/05/20 11:06:14;;;;;;;6.53;2.60;;;26.50;43.50;;;;;;4976214;28;20037;-84
2021/05/20 11:08:43;;;;;;;12.63;3.58;;;26.30;43.70;;;;;;4974797;28;20019;-82
2021/05/20 11:11:29;;;;;;;4.00;2.30;;;26.40;44.10;;;;;;4976062;28;20054;-83
2021/05/20 11:13:55;;;;;;;5.78;2.22;;;26.40;44.50;;;;;;4976072;28;20374;-82
2021/05/20 11:16:33;;;;;;;5.25;2.70;;;26.40;44.10;;;;;;4976608;28;20057;-82
2021/05/20 11:19:28;;;;;;;4.78;2.55;;;26.40;44.00;;;;;;4974558;28;20042;-83
2021/05/20 11:22:03;;;;;;;4.97;2.40;;;26.40;43.70;;;;;;4974413;28;20117;-83
2021/05/20 11:24:29;;;;;;;4.57;2.58;;;26.40;43.60;;;;;;4979281;28;20030;-82
2021/05/20 11:26:57;;;;;;;4.50;2.70;;;26.30;43.70;;;;;;4979546;28;20085;-81
2021/05/20 11:29:25;;;;;;;8.63;2.40;;;26.30;43.90;;;;;;4977019;28;20070;-83
2021/05/20 11:31:56;;;;;;;4.75;2.15;;;26.30;43.90;;;;;;4975712;28;20478;-83
2021/05/20 11:37:39;;;;;;;4.32;1.80;;;26.50;43.90;;;;;;4954956;28;20031;-83
2021/05/20 11:40:23;;;;;;;6.05;1.85;;;26.50;43.90;;;;;;4975309;28;20516;-83
2021/05/20 11:42:49;;;;;;;8.85;4.90;;;26.50;43.90;;;;;;4974888;28;20023;-75
2021/05/20 11:45:24;;;;;;;9.77;3.28;;;26.50;43.90;;;;;;4974656;28;20023;-75
2021/05/20 11:47:54;;;;;;;4.15;3.08;;;26.50;43.70;;;;;;4974667;28;20026;-75
2021/05/20 11:50:23;;;;;;;5.88;3.22;;;26.50;43.20;;;;;;4973126;28;20449;-75
2021/05/20 11:52:49;;;;;;;9.73;2.60;;;26.50;43.10;;;;;;4974488;28;20102;-76
2021/05/20 11:55:15;;;;;;;5.43;2.22;;;26.40;43.40;;;;;;4972608;28;20031;-75
2021/05/20 11:57:41;;;;;;;5.60;2.30;;;26.40;43.50;;;;;;4976887;28;20030;-74
2021/05/20 12:00:07;;;;;;;9.27;2.53;;;26.30;43.40;;;;;;4975764;28;20081;-75
2021/05/20 12:02:37;;;;;;;4.13;2.20;;;26.40;43.90;;;;;;4972243;28;20355;-76
2021/05/20 12:05:11;;;;;;;2.42;2.22;;;26.50;43.40;;;;;;4972572;28;20362;-74
2021/05/20 12:07:40;;;;;;;5.53;2.00;;;26.60;42.90;;;;;;4974157;28;20026;-76
2021/05/20 12:10:22;;;;;;;7.53;2.60;;;26.50;42.90;;;;;;4972274;28;20381;-76
2021/05/20 12:13:00;;;;;;;5.22;2.25;;;26.40;42.80;;;;;;4974042;28;20058;-77
2021/05/20 12:15:27;;;;;;;8.15;2.22;;;26.40;43.00;;;;;;4972867;28;20023;-76
2021/05/20 12:17:56;;;;;;;7.38;2.63;;;26.30;43.00;;;;;;4972010;28;20049;-77
2021/05/20 12:20:24;;;;;;;7.40;2.85;;;26.10;43.40;;;;;;4971874;28;20058;-76
2021/05/20 12:22:50;;;;;;;12.77;2.78;;;26.00;43.70;;;;;;4973631;28;20031;-75
2021/05/20 12:25:18;;;;;;;9.90;3.00;;;25.90;43.80;;;;;;4971694;28;20114;-75
2021/05/20 12:27:52;;;;;;;6.60;2.80;;;25.80;44.00;;;;;;4971694;28;20101;-76
2021/05/20 12:30:22;;;;;;;11.07;3.15;;;25.80;44.30;;;;;;4973497;28;20090;-76
2021/05/20 12:32:52;;;;;;;7.07;2.35;;;25.80;44.30;;;;;;4973364;28;20022;-75
2021/05/20 12:35:21;;;;;;;8.10;2.40;;;25.80;44.50;;;;;;4973644;28;20019;-76
2021/05/20 12:37:51;;;;;;;8.70;2.40;;;25.70;44.10;;;;;;4973635;28;20023;-75
2021/05/20 12:40:30;;;;;;;6.10;2.75;;;25.70;44.00;;;;;;4972798;28;20030;-75
2021/05/20 12:43:04;;;;;;;5.95;2.20;;;25.60;44.40;;;;;;4971791;28;20106;-76
2021/05/20 12:45:33;;;;;;;6.00;3.25;;;25.50;44.20;;;;;;4961811;28;20031;-75
2021/05/20 12:47:59;;;;;;;7.97;3.20;;;25.50;44.40;;;;;;4970997;28;20173;-75
2021/05/20 12:50:36;;;;;;;9.63;2.72;;;25.50;44.80;;;;;;4973395;28;20428;-77
2021/05/20 12:53:03;;;;;;;11.88;3.45;;;25.50;44.80;;;;;;4973235;28;20031;-82
2021/05/20 12:55:38;;;;;;;11.38;3.47;;;25.50;44.80;;;;;;4972634;28;20038;-82
2021/05/20 12:58:05;;;;;;;7.72;3.25;;;25.60;44.90;;;;;;4972664;28;20023;-82
2021/05/20 13:00:54;;;;;;;9.07;4.00;;;25.50;45.10;;;;;;4973743;28;20035;-84